eingeschrnkte Version 1999-2010 Werner Krenn
Wetterdaten: Montag / Dienstag, 14.12.2010
Datum Zeit Temp. A. Feuchte A. Luftdruck Regen Wind Richtung Richtung Taupunkt Windchill Windben
13.12.2010 23:00 -4,0 C 69 % 1018,6 hPa 0,0 l/m 6,4 km/h (2 Bft) NW 315 -8,8 C -3,9 C 22,5 km/h (4 Bft)
13.12.2010 23:30 -4,1 C 69 % 1018,5 hPa 0,0 l/m 4,8 km/h (1 Bft) NW 315 -8,9 C -4,1 C 16,1 km/h (3 Bft)
14.12.2010 00:00 -4,3 C 70 % 1018,5 hPa 0,0 l/m 6,4 km/h (2 Bft) NW 315 -8,9 C -4,2 C 20,9 km/h (4 Bft)
14.12.2010 00:30 -4,4 C 70 % 1018,3 hPa 0,0 l/m 6,4 km/h (2 Bft) NW 315 -9,0 C -4,3 C 20,9 km/h (4 Bft)
14.12.2010 01:00 -4,5 C 72 % 1018,1 hPa 0,0 l/m 6,4 km/h (2 Bft) NW 315 -8,8 C -4,4 C 22,5 km/h (4 Bft)
14.12.2010 01:30 -4,7 C 71 % 1018,2 hPa 0,0 l/m 6,4 km/h (2 Bft) NW 315 -9,1 C -4,6 C 20,9 km/h (4 Bft)
14.12.2010 02:00 -4,7 C 70 % 1018,1 hPa 0,0 l/m 8,0 km/h (2 Bft) NW 315 -9,3 C -6,6 C 29,0 km/h (5 Bft)
14.12.2010 02:30 -4,7 C 71 % 1018,4 hPa 0,0 l/m 8,0 km/h (2 Bft) NW 315 -9,1 C -6,6 C 25,7 km/h (4 Bft)
14.12.2010 03:00 -4,7 C 71 % 1018,2 hPa 0,0 l/m 8,0 km/h (2 Bft) NW 315 -9,1 C -6,6 C 22,5 km/h (4 Bft)
14.12.2010 03:30 -4,7 C 71 % 1018,0 hPa 0,0 l/m 8,0 km/h (2 Bft) NW 315 -9,1 C -6,6 C 20,9 km/h (4 Bft)
14.12.2010 04:00 -4,7 C 71 % 1018,0 hPa 0,0 l/m 8,0 km/h (2 Bft) NW 315 -9,1 C -6,6 C 30,6 km/h (5 Bft)
14.12.2010 04:30 -4,8 C 71 % 1018,1 hPa 0,0 l/m 9,7 km/h (2 Bft) NW 315 -9,2 C -8,5 C 29,0 km/h (5 Bft)
14.12.2010 05:00 -4,7 C 72 % 1018,2 hPa 0,0 l/m 9,7 km/h (2 Bft) NW 315 -9,0 C -8,4 C 30,6 km/h (5 Bft)
14.12.2010 05:30 -4,7 C 70 % 1018,0 hPa 0,0 l/m 9,7 km/h (2 Bft) W-NW 292 -9,3 C -8,4 C 27,4 km/h (4 Bft)
14.12.2010 06:00 -4,7 C 69 % 1018,3 hPa 0,0 l/m 8,0 km/h (2 Bft) W 270 -9,5 C -6,6 C 27,4 km/h (4 Bft)
14.12.2010 06:30 -4,8 C 70 % 1018,6 hPa 0,0 l/m 9,7 km/h (2 Bft) NW 315 -9,4 C -8,5 C 24,1 km/h (4 Bft)
14.12.2010 07:00 -4,8 C 70 % 1018,4 hPa 0,0 l/m 9,7 km/h (2 Bft) NW 315 -9,4 C -8,5 C 25,7 km/h (4 Bft)
14.12.2010 07:30 -4,6 C 66 % 1018,4 hPa 0,0 l/m 9,7 km/h (2 Bft) W-NW 292 -10,0 C -8,2 C 29,0 km/h (5 Bft)
14.12.2010 08:00 -4,5 C 66 % 1018,6 hPa 0,0 l/m 9,7 km/h (2 Bft) W 270 -9,9 C -8,1 C 29,0 km/h (5 Bft)
14.12.2010 08:30 -4,4 C 66 % 1018,8 hPa 0,0 l/m 9,7 km/h (2 Bft) W 270 -9,8 C -8,0 C 29,0 km/h (5 Bft)
14.12.2010 09:00 -4,2 C 66 % 1018,8 hPa 0,0 l/m 11,3 km/h (2 Bft) W 270 -9,6 C -9,3 C 32,2 km/h (5 Bft)
14.12.2010 09:15 -4,2 C 65 % 1018,8 hPa 0,0 l/m 14,1 km/h (3 Bft) W-NW 283 -9,8 C -11,4 C 27,4 km/h (4 Bft)
14.12.2010 09:30 -4,1 C 64 % 1018,8 hPa 0,0 l/m 13,4 km/h (3 Bft) W-NW 288 -9,9 C -10,8 C 32,2 km/h (5 Bft)
14.12.2010 09:45 -3,9 C 64 % 1019,0 hPa 0,0 l/m 11,1 km/h (2 Bft) W-NW 291 -9,7 C -8,7 C 32,2 km/h (5 Bft)
14.12.2010 10:00 -3,7 C 62 % 1019,1 hPa 0,0 l/m 10,7 km/h (2 Bft) W-NW 284 -9,9 C -8,2 C 27,4 km/h (4 Bft)
14.12.2010 10:30 -3,6 C 62 % 1019,0 hPa 0,0 l/m 11,3 km/h (2 Bft) NW 315 -9,8 C -8,6 C 27,4 km/h (4 Bft)
14.12.2010 11:00 -3,7 C 64 % 1019,1 hPa 0,0 l/m 11,3 km/h (2 Bft) NW 315 -9,5 C -8,7 C 33,8 km/h (5 Bft)
14.12.2010 11:30 -3,6 C 69 % 1018,9 hPa 0,0 l/m 11,3 km/h (2 Bft) NW 315 -8,4 C -8,6 C 30,6 km/h (5 Bft)
14.12.2010 12:00 -3,8 C 74 % 1019,0 hPa 0,0 l/m 9,7 km/h (2 Bft) NW 315 -7,7 C -7,4 C 32,2 km/h (5 Bft)
14.12.2010 12:30 -3,9 C 73 % 1019,0 hPa 0,0 l/m 11,3 km/h (2 Bft) NW 315 -8,0 C -8,9 C 33,8 km/h (5 Bft)
14.12.2010 13:00 -3,9 C 73 % 1018,9 hPa 0,0 l/m 9,7 km/h (2 Bft) NW 315 -8,0 C -7,5 C 30,6 km/h (5 Bft)
14.12.2010 13:30 -3,9 C 76 % 1018,8 hPa 0,0 l/m 11,3 km/h (2 Bft) NW 315 -7,5 C -8,9 C 37,0 km/h (5 Bft)
14.12.2010 14:00 -4,1 C 79 % 1018,8 hPa 0,0 l/m 9,7 km/h (2 Bft) NW 315 -7,2 C -7,7 C 24,1 km/h (4 Bft)
14.12.2010 14:30 -4,3 C 81 % 1018,8 hPa 0,0 l/m 9,7 km/h (2 Bft) NW 315 -7,1 C -7,9 C 27,4 km/h (4 Bft)
14.12.2010 14:45 -4,2 C 81 % 1018,9 hPa 0,0 l/m 11,5 km/h (2 Bft) W-NW 290 -7,0 C -9,4 C 24,1 km/h (4 Bft)
14.12.2010 15:00 -4,1 C 81 % 1018,8 hPa 0,0 l/m 9,5 km/h (2 Bft) W-SW 248 -6,9 C -7,5 C 27,4 km/h (4 Bft)
14.12.2010 15:15 -4,1 C 80 % 1018,8 hPa 0,0 l/m 13,4 km/h (3 Bft) W-NW 297 -7,0 C -10,8 C 40,2 km/h (6 Bft)
14.12.2010 15:30 -4,0 C 79 % 1018,8 hPa 0,0 l/m 12,6 km/h (3 Bft) NW 312 -7,1 C -10,1 C 29,0 km/h (5 Bft)
14.12.2010 16:00 -3,8 C 77 % 1018,9 hPa 0,0 l/m 11,3 km/h (2 Bft) NW 315 -7,2 C -8,8 C 35,4 km/h (5 Bft)
14.12.2010 16:30 -3,9 C 77 % 1019,0 hPa 0,0 l/m 8,0 km/h (2 Bft) W-NW 292 -7,3 C -5,7 C 25,7 km/h (4 Bft)
14.12.2010 17:00 -3,9 C 78 % 1019,0 hPa 0,0 l/m 9,7 km/h (2 Bft) W-NW 292 -7,2 C -7,5 C 29,0 km/h (5 Bft)
14.12.2010 17:30 -4,0 C 80 % 1019,1 hPa 0,0 l/m 12,9 km/h (3 Bft) NW 315 -6,9 C -10,3 C 29,0 km/h (5 Bft)
14.12.2010 18:00 -4,1 C 81 % 1018,8 hPa 0,0 l/m 11,3 km/h (2 Bft) W-NW 292 -6,9 C -9,1 C 40,2 km/h (6 Bft)
14.12.2010 18:30 -4,1 C 81 % 1018,6 hPa 0,0 l/m 12,9 km/h (3 Bft) W 270 -6,9 C -10,4 C 38,6 km/h (5 Bft)
14.12.2010 19:00 -4,1 C 81 % 1018,6 hPa 0,0 l/m 14,5 km/h (3 Bft) W-NW 292 -6,9 C -11,6 C 37,0 km/h (5 Bft)
14.12.2010 19:30 -4,1 C 82 % 1018,4 hPa 0,0 l/m 11,3 km/h (2 Bft) W 270 -6,7 C -9,1 C 32,2 km/h (5 Bft)
14.12.2010 20:00 -4,0 C 82 % 1018,4 hPa 0,0 l/m 11,3 km/h (2 Bft) W-NW 292 -6,6 C -9,0 C 30,6 km/h (5 Bft)
14.12.2010 20:30 -3,9 C 83 % 1018,3 hPa 0,0 l/m 12,9 km/h (3 Bft) W 270 -6,4 C -10,2 C 37,0 km/h (5 Bft)
14.12.2010 21:00 -3,9 C 83 % 1018,3 hPa 0,0 l/m 12,9 km/h (3 Bft) W-NW 292 -6,4 C -10,2 C 41,8 km/h (6 Bft)
14.12.2010 21:30 -3,8 C 83 % 1018,2 hPa 0,0 l/m 12,9 km/h (3 Bft) W-NW 292 -6,3 C -10,1 C 33,8 km/h (5 Bft)
14.12.2010 22:00 -3,6 C 82 % 1018,1 hPa 0,0 l/m 12,9 km/h (3 Bft) W 270 -6,2 C -9,8 C 32,2 km/h (5 Bft)